sensor_id;sensor_type;location;lat;lon;timestamp;temperature;humidity
22795;DHT22;11564;50.920;11.612;2023-08-17T00:01:26;19.00;99.90
22795;DHT22;11564;50.920;11.612;2023-08-17T00:03:52;19.00;99.90
22795;DHT22;11564;50.920;11.612;2023-08-17T00:06:17;19.00;99.90
22795;DHT22;11564;50.920;11.612;2023-08-17T00:08:44;19.00;99.90
22795;DHT22;11564;50.920;11.612;2023-08-17T00:11:09;19.00;99.90
22795;DHT22;11564;50.920;11.612;2023-08-17T00:13:35;18.90;99.90
22795;DHT22;11564;50.920;11.612;2023-08-17T00:16:01;18.90;99.90
22795;DHT22;11564;50.920;11.612;2023-08-17T00:18:27;18.90;99.90
22795;DHT22;11564;50.920;11.612;2023-08-17T00:20:53;19.00;99.90
22795;DHT22;11564;50.920;11.612;2023-08-17T00:23:18;18.90;99.90
22795;DHT22;11564;50.920;11.612;2023-08-17T00:25:46;19.00;99.90
22795;DHT22;11564;50.920;11.612;2023-08-17T00:28:13;19.00;99.90
22795;DHT22;11564;50.920;11.612;2023-08-17T00:30:39;19.30;99.90
22795;DHT22;11564;50.920;11.612;2023-08-17T00:33:05;19.50;99.90
22795;DHT22;11564;50.920;11.612;2023-08-17T00:35:31;19.60;99.90
22795;DHT22;11564;50.920;11.612;2023-08-17T00:37:56;19.60;99.90
22795;DHT22;11564;50.920;11.612;2023-08-17T00:40:22;19.60;99.90
22795;DHT22;11564;50.920;11.612;2023-08-17T00:42:48;19.70;99.90
22795;DHT22;11564;50.920;11.612;2023-08-17T00:45:15;19.70;99.90
22795;DHT22;11564;50.920;11.612;2023-08-17T00:47:41;19.80;99.90
22795;DHT22;11564;50.920;11.612;2023-08-17T00:50:07;19.80;99.90
22795;DHT22;11564;50.920;11.612;2023-08-17T00:52:33;20.00;99.90
22795;DHT22;11564;50.920;11.612;2023-08-17T00:55:00;20.00;99.90
22795;DHT22;11564;50.920;11.612;2023-08-17T00:57:28;20.10;99.90
22795;DHT22;11564;50.920;11.612;2023-08-17T00:59:54;20.10;99.90
22795;DHT22;11564;50.920;11.612;2023-08-17T01:02:20;20.20;99.90
22795;DHT22;11564;50.920;11.612;2023-08-17T01:04:45;20.10;99.90
22795;DHT22;11564;50.920;11.612;2023-08-17T01:07:11;20.20;99.90
22795;DHT22;11564;50.920;11.612;2023-08-17T01:09:37;20.20;99.90
22795;DHT22;11564;50.920;11.612;2023-08-17T01:12:32;20.10;99.90
22795;DHT22;11564;50.920;11.612;2023-08-17T01:15:09;20.10;99.90
22795;DHT22;11564;50.920;11.612;2023-08-17T01:18:01;20.00;99.90
22795;DHT22;11564;50.920;11.612;2023-08-17T01:20:30;20.00;99.90
22795;DHT22;11564;50.920;11.612;2023-08-17T01:23:05;19.90;99.90
22795;DHT22;11564;50.920;11.612;2023-08-17T01:25:31;20.00;99.90
22795;DHT22;11564;50.920;11.612;2023-08-17T01:28:02;19.90;99.90
22795;DHT22;11564;50.920;11.612;2023-08-17T01:30:28;19.90;99.90
22795;DHT22;11564;50.920;11.612;2023-08-17T01:33:05;19.80;99.90
22795;DHT22;11564;50.920;11.612;2023-08-17T01:35:44;19.70;99.90
22795;DHT22;11564;50.920;11.612;2023-08-17T01:38:14;19.70;99.90
22795;DHT22;11564;50.920;11.612;2023-08-17T01:40:41;19.60;99.90
22795;DHT22;11564;50.920;11.612;2023-08-17T01:43:07;19.60;99.90
22795;DHT22;11564;50.920;11.612;2023-08-17T01:45:34;19.60;99.90
22795;DHT22;11564;50.920;11.612;2023-08-17T01:47:59;19.50;99.90
22795;DHT22;11564;50.920;11.612;2023-08-17T01:50:25;19.30;99.90
22795;DHT22;11564;50.920;11.612;2023-08-17T01:52:51;19.30;99.90
22795;DHT22;11564;50.920;11.612;2023-08-17T01:55:16;19.20;99.90
22795;DHT22;11564;50.920;11.612;2023-08-17T01:57:42;19.10;99.90
22795;DHT22;11564;50.920;11.612;2023-08-17T02:00:08;18.90;99.90
22795;DHT22;11564;50.920;11.612;2023-08-17T02:02:36;18.80;99.90
22795;DHT22;11564;50.920;11.612;2023-08-17T02:05:02;18.80;99.90
22795;DHT22;11564;50.920;11.612;2023-08-17T02:07:28;18.80;99.90
22795;DHT22;11564;50.920;11.612;2023-08-17T02:09:53;18.80;99.90
22795;DHT22;11564;50.920;11.612;2023-08-17T02:12:19;18.80;99.90
22795;DHT22;11564;50.920;11.612;2023-08-17T02:14:45;18.70;99.90
22795;DHT22;11564;50.920;11.612;2023-08-17T02:17:10;18.70;99.90
22795;DHT22;11564;50.920;11.612;2023-08-17T02:19:36;18.70;99.90
22795;DHT22;11564;50.920;11.612;2023-08-17T02:22:02;18.60;99.90
22795;DHT22;11564;50.920;11.612;2023-08-17T02:24:28;18.50;99.90
22795;DHT22;11564;50.920;11.612;2023-08-17T02:26:53;18.40;99.90
22795;DHT22;11564;50.920;11.612;2023-08-17T02:29:19;18.40;99.90
22795;DHT22;11564;50.920;11.612;2023-08-17T02:31:44;18.30;99.90
22795;DHT22;11564;50.920;11.612;2023-08-17T02:34:10;18.20;99.90
22795;DHT22;11564;50.920;11.612;2023-08-17T02:36:36;18.20;99.90
22795;DHT22;11564;50.920;11.612;2023-08-17T02:39:01;18.20;99.90
22795;DHT22;11564;50.920;11.612;2023-08-17T02:41:28;18.20;99.90
22795;DHT22;11564;50.920;11.612;2023-08-17T02:43:55;18.20;99.90
22795;DHT22;11564;50.920;11.612;2023-08-17T02:46:21;18.20;99.90
22795;DHT22;11564;50.920;11.612;2023-08-17T02:48:47;18.20;99.90
22795;DHT22;11564;50.920;11.612;2023-08-17T02:51:13;18.20;99.90
22795;DHT22;11564;50.920;11.612;2023-08-17T02:53:39;18.20;99.90
22795;DHT22;11564;50.920;11.612;2023-08-17T02:56:04;18.10;99.90
22795;DHT22;11564;50.920;11.612;2023-08-17T02:58:30;18.10;99.90
22795;DHT22;11564;50.920;11.612;2023-08-17T03:00:56;18.10;99.90
22795;DHT22;11564;50.920;11.612;2023-08-17T03:03:21;18.10;99.90
22795;DHT22;11564;50.920;11.612;2023-08-17T03:05:47;18.10;99.90
22795;DHT22;11564;50.920;11.612;2023-08-17T03:08:12;18.10;99.90
22795;DHT22;11564;50.920;11.612;2023-08-17T03:10:38;18.10;99.90
22795;DHT22;11564;50.920;11.612;2023-08-17T03:13:04;18.10;99.90
22795;DHT22;11564;50.920;11.612;2023-08-17T03:15:29;18.20;99.90
22795;DHT22;11564;50.920;11.612;2023-08-17T03:17:55;18.20;99.90
22795;DHT22;11564;50.920;11.612;2023-08-17T03:20:21;18.10;99.90
22795;DHT22;11564;50.920;11.612;2023-08-17T03:22:47;18.10;99.90
22795;DHT22;11564;50.920;11.612;2023-08-17T03:25:12;18.10;99.90
22795;DHT22;11564;50.920;11.612;2023-08-17T03:27:38;18.20;99.90
22795;DHT22;11564;50.920;11.612;2023-08-17T03:30:05;18.20;99.90
22795;DHT22;11564;50.920;11.612;2023-08-17T03:32:31;18.20;99.90
22795;DHT22;11564;50.920;11.612;2023-08-17T03:34:56;18.10;99.90
22795;DHT22;11564;50.920;11.612;2023-08-17T03:37:22;18.20;99.90
22795;DHT22;11564;50.920;11.612;2023-08-17T03:39:47;18.20;99.90
22795;DHT22;11564;50.920;11.612;2023-08-17T03:42:13;18.20;99.90
22795;DHT22;11564;50.920;11.612;2023-08-17T03:44:38;18.20;99.90
22795;DHT22;11564;50.920;11.612;2023-08-17T03:47:04;18.20;99.90
22795;DHT22;11564;50.920;11.612;2023-08-17T03:49:30;18.20;99.90
22795;DHT22;11564;50.920;11.612;2023-08-17T03:51:55;18.20;99.90
22795;DHT22;11564;50.920;11.612;2023-08-17T03:54:21;18.20;99.90
22795;DHT22;11564;50.920;11.612;2023-08-17T03:56:47;18.10;99.90
22795;DHT22;11564;50.920;11.612;2023-08-17T03:59:13;18.20;99.90
22795;DHT22;11564;50.920;11.612;2023-08-17T04:01:39;18.10;99.90
22795;DHT22;11564;50.920;11.612;2023-08-17T04:04:04;18.10;99.90
22795;DHT22;11564;50.920;11.612;2023-08-17T04:06:30;18.10;99.90
22795;DHT22;11564;50.920;11.612;2023-08-17T04:08:56;18.10;99.90
22795;DHT22;11564;50.920;11.612;2023-08-17T04:11:21;18.10;99.90
22795;DHT22;11564;50.920;11.612;2023-08-17T04:13:47;18.10;99.90
22795;DHT22;11564;50.920;11.612;2023-08-17T04:16:12;18.10;99.90
22795;DHT22;11564;50.920;11.612;2023-08-17T04:18:38;18.10;99.90
22795;DHT22;11564;50.920;11.612;2023-08-17T04:21:04;18.20;99.90
22795;DHT22;11564;50.920;11.612;2023-08-17T04:23:29;18.20;99.90
22795;DHT22;11564;50.920;11.612;2023-08-17T04:25:55;18.20;99.90
22795;DHT22;11564;50.920;11.612;2023-08-17T04:28:21;18.10;99.90
22795;DHT22;11564;50.920;11.612;2023-08-17T04:30:46;18.10;99.90
22795;DHT22;11564;50.920;11.612;2023-08-17T04:33:12;18.10;99.90
22795;DHT22;11564;50.920;11.612;2023-08-17T04:35:38;18.10;99.90
22795;DHT22;11564;50.920;11.612;2023-08-17T04:38:04;18.00;99.90
22795;DHT22;11564;50.920;11.612;2023-08-17T04:40:30;18.00;99.90
22795;DHT22;11564;50.920;11.612;2023-08-17T04:42:55;18.00;99.90
22795;DHT22;11564;50.920;11.612;2023-08-17T04:45:21;18.00;99.90
22795;DHT22;11564;50.920;11.612;2023-08-17T04:47:47;18.00;99.90
22795;DHT22;11564;50.920;11.612;2023-08-17T04:50:12;18.00;99.90
22795;DHT22;11564;50.920;11.612;2023-08-17T04:52:44;18.00;99.90
22795;DHT22;11564;50.920;11.612;2023-08-17T04:55:14;17.90;99.90
22795;DHT22;11564;50.920;11.612;2023-08-17T04:57:39;18.00;99.90
22795;DHT22;11564;50.920;11.612;2023-08-17T05:00:05;17.90;99.90
22795;DHT22;11564;50.920;11.612;2023-08-17T05:02:35;17.90;99.90
22795;DHT22;11564;50.920;11.612;2023-08-17T05:05:03;18.10;99.90
22795;DHT22;11564;50.920;11.612;2023-08-17T05:07:29;18.00;99.90
22795;DHT22;11564;50.920;11.612;2023-08-17T05:09:55;18.10;99.90
22795;DHT22;11564;50.920;11.612;2023-08-17T05:12:20;18.20;99.90
22795;DHT22;11564;50.920;11.612;2023-08-17T05:14:46;18.10;99.90
22795;DHT22;11564;50.920;11.612;2023-08-17T05:17:11;18.00;99.90
22795;DHT22;11564;50.920;11.612;2023-08-17T05:19:37;17.90;99.90
22795;DHT22;11564;50.920;11.612;2023-08-17T05:22:05;17.90;99.90
22795;DHT22;11564;50.920;11.612;2023-08-17T05:24:31;18.00;99.90
22795;DHT22;11564;50.920;11.612;2023-08-17T05:26:58;18.10;99.90
22795;DHT22;11564;50.920;11.612;2023-08-17T05:29:23;18.10;99.90
22795;DHT22;11564;50.920;11.612;2023-08-17T05:31:49;18.10;99.90
22795;DHT22;11564;50.920;11.612;2023-08-17T05:34:14;18.10;99.90
22795;DHT22;11564;50.920;11.612;2023-08-17T05:36:40;18.10;99.90
22795;DHT22;11564;50.920;11.612;2023-08-17T05:39:06;18.10;99.90
22795;DHT22;11564;50.920;11.612;2023-08-17T05:41:32;18.00;99.90
22795;DHT22;11564;50.920;11.612;2023-08-17T05:43:58;18.10;99.90
22795;DHT22;11564;50.920;11.612;2023-08-17T05:46:23;18.10;99.90
22795;DHT22;11564;50.920;11.612;2023-08-17T05:48:49;18.20;99.90
22795;DHT22;11564;50.920;11.612;2023-08-17T05:51:15;18.20;99.90
22795;DHT22;11564;50.920;11.612;2023-08-17T05:53:40;18.10;99.90
22795;DHT22;11564;50.920;11.612;2023-08-17T05:56:07;18.10;99.90
22795;DHT22;11564;50.920;11.612;2023-08-17T05:58:32;18.10;99.90
22795;DHT22;11564;50.920;11.612;2023-08-17T06:01:08;18.10;99.90
22795;DHT22;11564;50.920;11.612;2023-08-17T06:03:35;18.00;99.90
22795;DHT22;11564;50.920;11.612;2023-08-17T06:06:01;18.10;99.90
22795;DHT22;11564;50.920;11.612;2023-08-17T06:08:27;18.10;99.90
22795;DHT22;11564;50.920;11.612;2023-08-17T06:10:52;18.20;99.90
22795;DHT22;11564;50.920;11.612;2023-08-17T06:13:18;18.30;99.90
22795;DHT22;11564;50.920;11.612;2023-08-17T06:15:44;18.40;99.90
22795;DHT22;11564;50.920;11.612;2023-08-17T06:18:09;18.50;99.90
22795;DHT22;11564;50.920;11.612;2023-08-17T06:20:35;18.50;99.90
22795;DHT22;11564;50.920;11.612;2023-08-17T06:23:01;18.60;99.90
22795;DHT22;11564;50.920;11.612;2023-08-17T06:25:26;18.60;99.90
22795;DHT22;11564;50.920;11.612;2023-08-17T06:27:52;18.70;99.90
22795;DHT22;11564;50.920;11.612;2023-08-17T06:30:18;18.70;99.90
22795;DHT22;11564;50.920;11.612;2023-08-17T06:32:43;18.80;99.90
22795;DHT22;11564;50.920;11.612;2023-08-17T06:35:09;19.00;99.90
22795;DHT22;11564;50.920;11.612;2023-08-17T06:37:35;19.30;99.90
22795;DHT22;11564;50.920;11.612;2023-08-17T06:40:02;19.50;99.90
22795;DHT22;11564;50.920;11.612;2023-08-17T06:42:27;19.70;99.90
22795;DHT22;11564;50.920;11.612;2023-08-17T06:44:53;19.90;99.90
22795;DHT22;11564;50.920;11.612;2023-08-17T06:47:19;20.00;99.90
22795;DHT22;11564;50.920;11.612;2023-08-17T06:49:44;20.10;99.90
22795;DHT22;11564;50.920;11.612;2023-08-17T06:52:10;20.20;99.90
22795;DHT22;11564;50.920;11.612;2023-08-17T06:54:35;20.20;99.90
22795;DHT22;11564;50.920;11.612;2023-08-17T06:57:01;20.30;99.90
22795;DHT22;11564;50.920;11.612;2023-08-17T06:59:27;20.60;99.90
22795;DHT22;11564;50.920;11.612;2023-08-17T07:01:52;20.80;99.90
22795;DHT22;11564;50.920;11.612;2023-08-17T07:04:18;20.90;99.90
22795;DHT22;11564;50.920;11.612;2023-08-17T07:06:44;21.00;99.90
22795;DHT22;11564;50.920;11.612;2023-08-17T07:09:09;21.10;99.90
22795;DHT22;11564;50.920;11.612;2023-08-17T07:11:38;21.20;99.90
22795;DHT22;11564;50.920;11.612;2023-08-17T07:14:04;21.20;99.90
22795;DHT22;11564;50.920;11.612;2023-08-17T07:16:32;21.30;99.90
22795;DHT22;11564;50.920;11.612;2023-08-17T07:18:57;21.40;99.90
22795;DHT22;11564;50.920;11.612;2023-08-17T07:21:23;21.20;99.90
22795;DHT22;11564;50.920;11.612;2023-08-17T07:23:50;21.20;99.90
22795;DHT22;11564;50.920;11.612;2023-08-17T07:26:15;21.20;99.90
22795;DHT22;11564;50.920;11.612;2023-08-17T07:28:41;21.20;99.90
22795;DHT22;11564;50.920;11.612;2023-08-17T07:31:06;21.30;99.90
22795;DHT22;11564;50.920;11.612;2023-08-17T07:33:32;21.40;99.90
22795;DHT22;11564;50.920;11.612;2023-08-17T07:35:58;21.60;99.90
22795;DHT22;11564;50.920;11.612;2023-08-17T07:38:24;21.80;99.90
22795;DHT22;11564;50.920;11.612;2023-08-17T07:40:50;21.80;99.90
22795;DHT22;11564;50.920;11.612;2023-08-17T07:43:16;22.00;99.90
22795;DHT22;11564;50.920;11.612;2023-08-17T07:45:41;22.40;99.90
22795;DHT22;11564;50.920;11.612;2023-08-17T07:48:07;22.60;99.90
22795;DHT22;11564;50.920;11.612;2023-08-17T07:50:33;22.70;99.90
22795;DHT22;11564;50.920;11.612;2023-08-17T07:52:58;23.00;99.90
22795;DHT22;11564;50.920;11.612;2023-08-17T07:55:25;23.00;99.90
22795;DHT22;11564;50.920;11.612;2023-08-17T07:57:50;23.10;99.90
22795;DHT22;11564;50.920;11.612;2023-08-17T08:00:16;23.40;99.90
22795;DHT22;11564;50.920;11.612;2023-08-17T08:02:42;23.60;99.90
22795;DHT22;11564;50.920;11.612;2023-08-17T08:05:08;23.90;99.90
22795;DHT22;11564;50.920;11.612;2023-08-17T08:07:33;24.10;99.90
22795;DHT22;11564;50.920;11.612;2023-08-17T08:09:59;24.20;99.90
22795;DHT22;11564;50.920;11.612;2023-08-17T08:12:25;24.20;99.90
22795;DHT22;11564;50.920;11.612;2023-08-17T08:14:50;24.10;99.90
22795;DHT22;11564;50.920;11.612;2023-08-17T08:17:16;24.20;99.90
22795;DHT22;11564;50.920;11.612;2023-08-17T08:19:42;24.20;99.90
22795;DHT22;11564;50.920;11.612;2023-08-17T08:22:07;24.40;99.90
22795;DHT22;11564;50.920;11.612;2023-08-17T08:24:33;24.50;99.90
22795;DHT22;11564;50.920;11.612;2023-08-17T08:27:01;24.60;99.90
22795;DHT22;11564;50.920;11.612;2023-08-17T08:29:27;24.70;99.90
22795;DHT22;11564;50.920;11.612;2023-08-17T08:31:53;24.80;99.90
22795;DHT22;11564;50.920;11.612;2023-08-17T08:34:19;24.90;99.90
22795;DHT22;11564;50.920;11.612;2023-08-17T08:36:44;25.00;99.90
22795;DHT22;11564;50.920;11.612;2023-08-17T08:39:10;24.90;99.90
22795;DHT22;11564;50.920;11.612;2023-08-17T08:41:37;25.10;99.90
22795;DHT22;11564;50.920;11.612;2023-08-17T08:44:04;25.30;99.90
22795;DHT22;11564;50.920;11.612;2023-08-17T08:46:30;25.30;99.90
22795;DHT22;11564;50.920;11.612;2023-08-17T08:48:58;25.30;99.90
22795;DHT22;11564;50.920;11.612;2023-08-17T08:51:27;25.20;99.90
22795;DHT22;11564;50.920;11.612;2023-08-17T08:54:01;25.30;99.90
22795;DHT22;11564;50.920;11.612;2023-08-17T08:56:35;25.30;99.90
22795;DHT22;11564;50.920;11.612;2023-08-17T08:59:02;25.20;99.90
22795;DHT22;11564;50.920;11.612;2023-08-17T09:01:30;25.30;99.90
22795;DHT22;11564;50.920;11.612;2023-08-17T09:03:59;25.30;99.90
22795;DHT22;11564;50.920;11.612;2023-08-17T09:06:25;25.40;99.90
22795;DHT22;11564;50.920;11.612;2023-08-17T09:08:52;25.50;99.90
22795;DHT22;11564;50.920;11.612;2023-08-17T09:11:18;25.60;99.90
22795;DHT22;11564;50.920;11.612;2023-08-17T09:13:43;25.70;99.90
22795;DHT22;11564;50.920;11.612;2023-08-17T09:16:09;25.80;99.90
22795;DHT22;11564;50.920;11.612;2023-08-17T09:18:35;25.90;99.90
22795;DHT22;11564;50.920;11.612;2023-08-17T09:21:01;26.00;99.90
22795;DHT22;11564;50.920;11.612;2023-08-17T09:23:27;26.10;99.90
22795;DHT22;11564;50.920;11.612;2023-08-17T09:25:52;26.30;99.90
22795;DHT22;11564;50.920;11.612;2023-08-17T09:28:23;26.30;99.90
22795;DHT22;11564;50.920;11.612;2023-08-17T09:30:59;26.40;99.90
22795;DHT22;11564;50.920;11.612;2023-08-17T09:33:27;26.40;99.90
22795;DHT22;11564;50.920;11.612;2023-08-17T09:35:54;26.60;99.90
22795;DHT22;11564;50.920;11.612;2023-08-17T09:38:20;26.70;99.90
22795;DHT22;11564;50.920;11.612;2023-08-17T09:40:47;26.90;99.90
22795;DHT22;11564;50.920;11.612;2023-08-17T09:43:14;27.10;99.90
22795;DHT22;11564;50.920;11.612;2023-08-17T09:45:40;27.10;99.90
22795;DHT22;11564;50.920;11.612;2023-08-17T09:48:07;27.30;99.90
22795;DHT22;11564;50.920;11.612;2023-08-17T09:50:34;27.30;99.90
22795;DHT22;11564;50.920;11.612;2023-08-17T09:52:59;27.40;99.90
22795;DHT22;11564;50.920;11.612;2023-08-17T09:55:26;27.30;99.90
22795;DHT22;11564;50.920;11.612;2023-08-17T09:57:52;26.90;99.90
22795;DHT22;11564;50.920;11.612;2023-08-17T10:00:19;27.20;99.90
22795;DHT22;11564;50.920;11.612;2023-08-17T10:02:45;27.50;99.90
22795;DHT22;11564;50.920;11.612;2023-08-17T10:05:18;27.50;99.90
22795;DHT22;11564;50.920;11.612;2023-08-17T10:07:49;27.40;99.90
22795;DHT22;11564;50.920;11.612;2023-08-17T10:10:21;27.50;99.90
22795;DHT22;11564;50.920;11.612;2023-08-17T10:12:52;27.90;99.90
22795;DHT22;11564;50.920;11.612;2023-08-17T10:15:19;28.30;99.90
22795;DHT22;11564;50.920;11.612;2023-08-17T10:18:12;28.60;99.90
22795;DHT22;11564;50.920;11.612;2023-08-17T10:20:42;28.90;99.90
22795;DHT22;11564;50.920;11.612;2023-08-17T10:23:15;29.00;99.90
22795;DHT22;11564;50.920;11.612;2023-08-17T10:25:42;29.30;99.90
22795;DHT22;11564;50.920;11.612;2023-08-17T10:28:12;29.50;99.90
22795;DHT22;11564;50.920;11.612;2023-08-17T10:30:39;29.60;99.90
22795;DHT22;11564;50.920;11.612;2023-08-17T10:33:06;29.70;99.90
22795;DHT22;11564;50.920;11.612;2023-08-17T10:35:33;30.10;99.90
22795;DHT22;11564;50.920;11.612;2023-08-17T10:37:59;30.30;99.90
22795;DHT22;11564;50.920;11.612;2023-08-17T10:40:28;30.50;99.90
22795;DHT22;11564;50.920;11.612;2023-08-17T10:42:55;30.70;99.90
22795;DHT22;11564;50.920;11.612;2023-08-17T10:45:29;30.90;99.90
22795;DHT22;11564;50.920;11.612;2023-08-17T10:50:35;31.30;99.90
22795;DHT22;11564;50.920;11.612;2023-08-17T10:53:08;31.30;99.90
22795;DHT22;11564;50.920;11.612;2023-08-17T10:55:44;31.40;99.90
22795;DHT22;11564;50.920;11.612;2023-08-17T10:58:09;30.90;99.90
22795;DHT22;11564;50.920;11.612;2023-08-17T11:00:37;30.80;99.90
22795;DHT22;11564;50.920;11.612;2023-08-17T11:03:07;30.20;99.90
22795;DHT22;11564;50.920;11.612;2023-08-17T11:05:54;29.90;99.90
22795;DHT22;11564;50.920;11.612;2023-08-17T11:09:08;29.70;99.90
22795;DHT22;11564;50.920;11.612;2023-08-17T11:11:11;29.30;99.90
22795;DHT22;11564;50.920;11.612;2023-08-17T11:13:42;29.00;99.90
22795;DHT22;11564;50.920;11.612;2023-08-17T11:16:09;28.50;99.90
22795;DHT22;11564;50.920;11.612;2023-08-17T11:18:35;28.20;99.90
22795;DHT22;11564;50.920;11.612;2023-08-17T11:21:07;28.70;99.90
22795;DHT22;11564;50.920;11.612;2023-08-17T11:23:35;29.20;99.90
22795;DHT22;11564;50.920;11.612;2023-08-17T11:26:02;28.70;99.90
22795;DHT22;11564;50.920;11.612;2023-08-17T11:28:30;28.20;99.90
22795;DHT22;11564;50.920;11.612;2023-08-17T11:31:05;28.30;99.90
22795;DHT22;11564;50.920;11.612;2023-08-17T11:33:33;28.80;99.90
22795;DHT22;11564;50.920;11.612;2023-08-17T11:36:00;29.30;99.90
22795;DHT22;11564;50.920;11.612;2023-08-17T11:38:30;29.90;99.90
22795;DHT22;11564;50.920;11.612;2023-08-17T11:40:58;30.10;99.90
22795;DHT22;11564;50.920;11.612;2023-08-17T11:43:24;30.10;99.90
22795;DHT22;11564;50.920;11.612;2023-08-17T11:45:50;30.10;99.90
22795;DHT22;11564;50.920;11.612;2023-08-17T11:48:19;30.40;99.90
22795;DHT22;11564;50.920;11.612;2023-08-17T11:50:44;30.70;99.90
22795;DHT22;11564;50.920;11.612;2023-08-17T11:53:10;30.40;99.90
22795;DHT22;11564;50.920;11.612;2023-08-17T11:55:36;30.30;99.90
22795;DHT22;11564;50.920;11.612;2023-08-17T11:58:03;30.00;99.90
22795;DHT22;11564;50.920;11.612;2023-08-17T12:00:35;29.90;99.90
22795;DHT22;11564;50.920;11.612;2023-08-17T12:03:02;30.40;99.90
22795;DHT22;11564;50.920;11.612;2023-08-17T12:05:31;30.70;99.90
22795;DHT22;11564;50.920;11.612;2023-08-17T12:07:59;31.10;99.90
22795;DHT22;11564;50.920;11.612;2023-08-17T12:10:31;31.30;99.90
22795;DHT22;11564;50.920;11.612;2023-08-17T12:12:58;31.70;99.90
22795;DHT22;11564;50.920;11.612;2023-08-17T12:15:30;31.60;99.90
22795;DHT22;11564;50.920;11.612;2023-08-17T12:17:59;31.50;99.90
22795;DHT22;11564;50.920;11.612;2023-08-17T12:20:24;31.40;99.90
22795;DHT22;11564;50.920;11.612;2023-08-17T12:22:50;30.60;99.90
22795;DHT22;11564;50.920;11.612;2023-08-17T12:25:16;31.20;99.90
22795;DHT22;11564;50.920;11.612;2023-08-17T12:27:47;31.30;99.90
22795;DHT22;11564;50.920;11.612;2023-08-17T12:30:30;31.30;99.90
22795;DHT22;11564;50.920;11.612;2023-08-17T12:32:58;30.90;99.90
22795;DHT22;11564;50.920;11.612;2023-08-17T12:35:24;30.40;99.90
22795;DHT22;11564;50.920;11.612;2023-08-17T12:37:51;30.30;99.90
22795;DHT22;11564;50.920;11.612;2023-08-17T12:40:16;30.00;99.90
22795;DHT22;11564;50.920;11.612;2023-08-17T12:42:42;30.00;99.90
22795;DHT22;11564;50.920;11.612;2023-08-17T12:45:08;30.80;99.90
22795;DHT22;11564;50.920;11.612;2023-08-17T12:47:34;31.60;99.90
22795;DHT22;11564;50.920;11.612;2023-08-17T12:49:59;32.30;99.90
22795;DHT22;11564;50.920;11.612;2023-08-17T12:52:26;32.90;99.90
22795;DHT22;11564;50.920;11.612;2023-08-17T12:54:53;33.30;99.90
22795;DHT22;11564;50.920;11.612;2023-08-17T12:57:18;33.70;99.90
22795;DHT22;11564;50.920;11.612;2023-08-17T12:59:44;33.70;99.90
22795;DHT22;11564;50.920;11.612;2023-08-17T13:02:09;33.90;99.90
22795;DHT22;11564;50.920;11.612;2023-08-17T13:04:35;34.10;99.90
22795;DHT22;11564;50.920;11.612;2023-08-17T13:07:02;34.60;99.20
22795;DHT22;11564;50.920;11.612;2023-08-17T13:09:27;34.90;98.20
22795;DHT22;11564;50.920;11.612;2023-08-17T13:11:53;35.80;97.30
22795;DHT22;11564;50.920;11.612;2023-08-17T13:14:18;38.20;94.10
22795;DHT22;11564;50.920;11.612;2023-08-17T13:16:44;39.70;90.20
22795;DHT22;11564;50.920;11.612;2023-08-17T13:19:10;38.10;90.20
22795;DHT22;11564;50.920;11.612;2023-08-17T13:21:35;37.80;90.50
22795;DHT22;11564;50.920;11.612;2023-08-17T13:24:01;37.10;90.80
22795;DHT22;11564;50.920;11.612;2023-08-17T13:26:28;36.20;91.90
22795;DHT22;11564;50.920;11.612;2023-08-17T13:28:54;33.30;94.00
22795;DHT22;11564;50.920;11.612;2023-08-17T13:31:20;32.70;95.60
22795;DHT22;11564;50.920;11.612;2023-08-17T13:33:45;32.70;96.20
22795;DHT22;11564;50.920;11.612;2023-08-17T13:36:11;33.10;95.90
22795;DHT22;11564;50.920;11.612;2023-08-17T13:38:37;34.50;93.30
22795;DHT22;11564;50.920;11.612;2023-08-17T13:41:04;36.70;91.70
22795;DHT22;11564;50.920;11.612;2023-08-17T13:43:29;39.80;86.70
22795;DHT22;11564;50.920;11.612;2023-08-17T13:45:55;41.10;81.40
22795;DHT22;11564;50.920;11.612;2023-08-17T13:48:21;40.60;77.60
22795;DHT22;11564;50.920;11.612;2023-08-17T13:50:46;41.00;79.30
22795;DHT22;11564;50.920;11.612;2023-08-17T13:53:12;39.60;81.70
22795;DHT22;11564;50.920;11.612;2023-08-17T13:55:38;40.20;81.00
22795;DHT22;11564;50.920;11.612;2023-08-17T13:58:04;42.00;78.30
22795;DHT22;11564;50.920;11.612;2023-08-17T14:00:29;41.40;76.70
22795;DHT22;11564;50.920;11.612;2023-08-17T14:02:55;39.80;78.00
22795;DHT22;11564;50.920;11.612;2023-08-17T14:05:20;38.20;83.00
22795;DHT22;11564;50.920;11.612;2023-08-17T14:07:47;37.30;82.80
22795;DHT22;11564;50.920;11.612;2023-08-17T14:10:13;34.80;86.80
22795;DHT22;11564;50.920;11.612;2023-08-17T14:12:39;34.00;91.00
22795;DHT22;11564;50.920;11.612;2023-08-17T14:15:05;33.10;91.20
22795;DHT22;11564;50.920;11.612;2023-08-17T14:17:30;32.90;92.40
22795;DHT22;11564;50.920;11.612;2023-08-17T14:19:56;31.80;93.40
22795;DHT22;11564;50.920;11.612;2023-08-17T14:22:22;30.50;94.60
22795;DHT22;11564;50.920;11.612;2023-08-17T14:24:47;30.20;95.50
22795;DHT22;11564;50.920;11.612;2023-08-17T14:27:13;30.00;96.40
22795;DHT22;11564;50.920;11.612;2023-08-17T14:29:38;29.90;96.70
22795;DHT22;11564;50.920;11.612;2023-08-17T14:32:04;29.60;98.20
22795;DHT22;11564;50.920;11.612;2023-08-17T14:34:30;29.40;98.00
22795;DHT22;11564;50.920;11.612;2023-08-17T14:36:55;29.20;97.70
22795;DHT22;11564;50.920;11.612;2023-08-17T14:39:21;28.90;98.10
22795;DHT22;11564;50.920;11.612;2023-08-17T14:41:47;28.70;99.20
22795;DHT22;11564;50.920;11.612;2023-08-17T14:44:12;28.50;99.20
22795;DHT22;11564;50.920;11.612;2023-08-17T14:46:38;28.60;99.10
22795;DHT22;11564;50.920;11.612;2023-08-17T14:49:04;28.60;99.30
22795;DHT22;11564;50.920;11.612;2023-08-17T14:51:31;28.50;99.90
22795;DHT22;11564;50.920;11.612;2023-08-17T14:54:02;28.20;99.90
22795;DHT22;11564;50.920;11.612;2023-08-17T14:56:27;27.90;99.90
22795;DHT22;11564;50.920;11.612;2023-08-17T14:58:53;27.80;99.90
22795;DHT22;11564;50.920;11.612;2023-08-17T15:01:18;27.50;99.90
22795;DHT22;11564;50.920;11.612;2023-08-17T15:03:44;27.20;99.50
22795;DHT22;11564;50.920;11.612;2023-08-17T15:06:10;26.80;99.90
22795;DHT22;11564;50.920;11.612;2023-08-17T15:08:35;26.30;99.50
22795;DHT22;11564;50.920;11.612;2023-08-17T15:11:01;25.90;99.30
22795;DHT22;11564;50.920;11.612;2023-08-17T15:13:28;25.50;99.10
22795;DHT22;11564;50.920;11.612;2023-08-17T15:15:54;25.20;99.60